Time;durP1;ratioP1;P1;durP2;ratioP2;P2;SDS_P1;SDS_P2;PMS_P1;PMS_P2;Temp;Humidity;BMP_temperature;BMP_pressure;BME280_temperature;BME280_humidity;BME280_pressure;Samples;Min_cycle;Max_cycle;Signal;HPM_P1;HPM_P2
2022/09/19 00:02:13;;;;;;;0.90;0.90;;;;;;;;;;4973735;28;20409;-63
2022/09/19 00:04:38;;;;;;;1.15;0.80;;;;;;;;;;4975862;28;20039;-64
2022/09/19 00:07:03;;;;;;;0.85;0.85;;;;;;;;;;4974899;28;20072;-63
2022/09/19 00:09:30;;;;;;;0.70;0.70;;;;;;;;;;4974746;28;20018;-63
2022/09/19 00:11:56;;;;;;;0.82;0.82;;;;;;;;;;4975079;28;20525;-63
2022/09/19 00:14:23;;;;;;;1.23;1.10;;;;;;;;;;4973238;28;20037;-63
2022/09/19 00:16:48;;;;;;;0.80;0.80;;;;;;;;;;4974527;28;20382;-63
2022/09/19 00:19:15;;;;;;;0.90;0.90;;;;;;;;;;4973413;28;20839;-63
2022/09/19 00:21:42;;;;;;;0.82;0.82;;;;;;;;;;4974252;28;20034;-63
2022/09/19 00:26:55;;;;;;;1.25;1.15;;;;;;;;;;4972405;28;20053;-64
2022/09/19 00:29:20;;;;;;;0.70;0.70;;;;;;;;;;4972952;28;20130;-63
2022/09/19 00:31:46;;;;;;;3.03;1.00;;;;;;;;;;4972747;28;20096;-63
2022/09/19 00:34:12;;;;;;;0.90;0.90;;;;;;;;;;4973511;28;20034;-63
2022/09/19 00:36:38;;;;;;;1.00;1.00;;;;;;;;;;4973854;28;20534;-62
2022/09/19 00:39:05;;;;;;;1.38;0.88;;;;;;;;;;4973082;28;20031;-63
2022/09/19 00:41:30;;;;;;;0.80;0.80;;;;;;;;;;4974213;28;20022;-63
2022/09/19 00:43:56;;;;;;;0.80;0.80;;;;;;;;;;4972973;28;20045;-64
2022/09/19 00:46:23;;;;;;;2.30;0.80;;;;;;;;;;4973967;28;20093;-64
2022/09/19 00:48:57;;;;;;;0.70;0.70;;;;;;;;;;4973507;28;20023;-64
2022/09/19 00:51:27;;;;;;;1.58;1.00;;;;;;;;;;4972981;28;20122;-64
2022/09/19 00:53:52;;;;;;;1.73;1.20;;;;;;;;;;4973728;28;20101;-64
2022/09/19 00:56:18;;;;;;;1.13;1.02;;;;;;;;;;4974296;28;20033;-64
2022/09/19 00:58:44;;;;;;;1.38;0.90;;;;;;;;;;4973729;28;20035;-64
2022/09/19 01:01:10;;;;;;;2.38;1.13;;;;;;;;;;4973946;28;20045;-62
2022/09/19 01:03:35;;;;;;;2.05;0.95;;;;;;;;;;4973428;28;20053;-63
2022/09/19 01:06:19;;;;;;;1.10;0.95;;;;;;;;;;4973764;28;20030;-62
2022/09/19 01:08:45;;;;;;;1.58;1.00;;;;;;;;;;4971994;28;20023;-62
2022/09/19 01:11:29;;;;;;;2.60;0.93;;;;;;;;;;4975038;28;20093;-62
2022/09/19 01:14:02;;;;;;;1.02;1.00;;;;;;;;;;4968557;28;20065;-63
2022/09/19 01:16:54;;;;;;;1.15;1.10;;;;;;;;;;4971283;28;20110;-63
2022/09/19 01:19:22;;;;;;;1.08;0.93;;;;;;;;;;4973052;28;20041;-64
2022/09/19 01:21:58;;;;;;;1.42;1.05;;;;;;;;;;4973287;28;20065;-63
2022/09/19 01:24:40;;;;;;;1.02;0.93;;;;;;;;;;4972299;28;20116;-63
2022/09/19 01:27:20;;;;;;;1.10;1.10;;;;;;;;;;4974246;28;20054;-63
2022/09/19 01:29:48;;;;;;;1.55;0.82;;;;;;;;;;4970045;28;20027;-63
2022/09/19 01:32:18;;;;;;;1.00;0.95;;;;;;;;;;4968185;28;20457;-63
2022/09/19 01:34:49;;;;;;;3.92;2.03;;;;;;;;;;4969015;28;20034;-63
2022/09/19 01:37:20;;;;;;;1.50;0.98;;;;;;;;;;4973405;28;20034;-64
2022/09/19 01:39:48;;;;;;;0.90;0.82;;;;;;;;;;4972936;28;20030;-66
2022/09/19 01:42:14;;;;;;;1.02;1.00;;;;;;;;;;4973901;28;20114;-63
2022/09/19 01:44:39;;;;;;;0.95;0.95;;;;;;;;;;4972646;28;20152;-63
2022/09/19 01:47:05;;;;;;;1.00;0.90;;;;;;;;;;4973085;28;20525;-64
2022/09/19 01:49:49;;;;;;;1.55;1.42;;;;;;;;;;4972170;28;20575;-64
2022/09/19 01:52:38;;;;;;;1.25;1.15;;;;;;;;;;4974422;28;20027;-63
2022/09/19 01:55:09;;;;;;;3.45;1.40;;;;;;;;;;4972705;28;20507;-63
2022/09/19 01:57:34;;;;;;;1.42;1.33;;;;;;;;;;4970046;28;20030;-63
2022/09/19 01:59:59;;;;;;;0.88;0.88;;;;;;;;;;4967970;28;20433;-63
2022/09/19 02:02:24;;;;;;;0.88;0.80;;;;;;;;;;4969454;28;20480;-62
2022/09/19 02:05:00;;;;;;;0.80;0.80;;;;;;;;;;4968302;28;20113;-63
2022/09/19 02:07:44;;;;;;;0.95;0.95;;;;;;;;;;4972115;28;20066;-62
2022/09/19 02:10:30;;;;;;;0.77;0.70;;;;;;;;;;4971422;28;20065;-62
2022/09/19 02:12:56;;;;;;;0.80;0.80;;;;;;;;;;4973352;28;20039;-61
2022/09/19 02:15:25;;;;;;;0.70;0.70;;;;;;;;;;4972606;28;20035;-62
2022/09/19 02:17:56;;;;;;;1.40;0.90;;;;;;;;;;4974607;28;20106;-67
2022/09/19 02:20:34;;;;;;;0.80;0.80;;;;;;;;;;4971667;28;20077;-65
2022/09/19 02:23:02;;;;;;;0.88;0.88;;;;;;;;;;4972940;28;20026;-67
2022/09/19 02:25:32;;;;;;;1.30;1.20;;;;;;;;;;4972434;28;20085;-65
2022/09/19 02:28:00;;;;;;;1.10;1.00;;;;;;;;;;4972832;28;20129;-67
2022/09/19 02:30:26;;;;;;;0.70;0.70;;;;;;;;;;4969221;28;20272;-67
2022/09/19 02:32:53;;;;;;;0.77;0.77;;;;;;;;;;4967983;28;20588;-67
2022/09/19 02:35:34;;;;;;;1.00;1.00;;;;;;;;;;4970910;28;20497;-64
2022/09/19 02:38:04;;;;;;;0.70;0.70;;;;;;;;;;4972208;28;20031;-67
2022/09/19 02:40:35;;;;;;;1.35;0.77;;;;;;;;;;4970144;28;20627;-68
2022/09/19 02:43:07;;;;;;;0.63;0.63;;;;;;;;;;4973224;28;20531;-68
2022/09/19 02:45:38;;;;;;;1.30;0.75;;;;;;;;;;4973228;28;20035;-66
2022/09/19 02:48:11;;;;;;;1.10;0.77;;;;;;;;;;4972767;28;20082;-67
2022/09/19 02:50:43;;;;;;;1.05;0.82;;;;;;;;;;4968672;28;20027;-67
2022/09/19 02:53:12;;;;;;;0.70;0.70;;;;;;;;;;4972289;28;20026;-67
2022/09/19 02:55:41;;;;;;;1.65;0.70;;;;;;;;;;4971138;28;20031;-68
2022/09/19 02:58:07;;;;;;;0.95;0.80;;;;;;;;;;4971231;28;20655;-67
2022/09/19 03:00:34;;;;;;;0.70;0.70;;;;;;;;;;4971546;28;20027;-66
2022/09/19 03:04:11;;;;;;;0.50;0.50;;;;;;;;;;4972066;28;20118;-66
2022/09/19 03:05:53;;;;;;;0.70;0.70;;;;;;;;;;4972129;28;20038;-67
2022/09/19 03:08:24;;;;;;;0.68;0.63;;;;;;;;;;4972357;28;20022;-68
2022/09/19 03:10:52;;;;;;;1.17;1.17;;;;;;;;;;4971530;28;20535;-67
2022/09/19 03:13:24;;;;;;;0.77;0.60;;;;;;;;;;4972975;28;20451;-63
2022/09/19 03:16:07;;;;;;;0.73;0.60;;;;;;;;;;4972571;28;20042;-65
2022/09/19 03:18:34;;;;;;;0.52;0.52;;;;;;;;;;4972087;28;20026;-66
2022/09/19 03:21:02;;;;;;;0.52;0.52;;;;;;;;;;4971698;28;20440;-66
2022/09/19 03:23:30;;;;;;;0.60;0.60;;;;;;;;;;4971502;28;20035;-66
2022/09/19 03:25:56;;;;;;;1.08;0.63;;;;;;;;;;4971460;28;20030;-67
2022/09/19 03:28:22;;;;;;;0.70;0.70;;;;;;;;;;4972635;28;20081;-70
2022/09/19 03:30:48;;;;;;;0.60;0.60;;;;;;;;;;4972476;28;20098;-71
2022/09/19 03:33:15;;;;;;;0.60;0.60;;;;;;;;;;4975108;28;20093;-70
2022/09/19 03:35:41;;;;;;;0.70;0.55;;;;;;;;;;4975513;28;20035;-68
2022/09/19 03:38:07;;;;;;;1.05;0.50;;;;;;;;;;4974091;28;20022;-68
2022/09/19 03:40:33;;;;;;;0.65;0.65;;;;;;;;;;4974602;28;20058;-69
2022/09/19 03:42:58;;;;;;;0.50;0.50;;;;;;;;;;4975886;28;20400;-70
2022/09/19 03:45:24;;;;;;;0.55;0.55;;;;;;;;;;4975498;28;20031;-68
2022/09/19 03:47:49;;;;;;;1.92;0.90;;;;;;;;;;4973558;28;20130;-68
2022/09/19 03:50:14;;;;;;;0.60;0.60;;;;;;;;;;4975545;28;20054;-70
2022/09/19 03:52:40;;;;;;;0.55;0.55;;;;;;;;;;4974588;28;20038;-72
2022/09/19 03:55:06;;;;;;;0.65;0.65;;;;;;;;;;4974226;28;20649;-70
2022/09/19 03:57:32;;;;;;;0.47;0.47;;;;;;;;;;4970770;28;20724;-70
2022/09/19 03:59:57;;;;;;;0.63;0.63;;;;;;;;;;4974227;28;20089;-71
2022/09/19 04:02:22;;;;;;;0.50;0.50;;;;;;;;;;4974366;28;20113;-71
2022/09/19 04:04:47;;;;;;;5.68;0.95;;;;;;;;;;4976147;28;20030;-70
2022/09/19 04:07:15;;;;;;;0.63;0.63;;;;;;;;;;4972776;28;20118;-71
2022/09/19 04:09:40;;;;;;;0.75;0.75;;;;;;;;;;4975045;28;20053;-71
2022/09/19 04:12:05;;;;;;;0.50;0.50;;;;;;;;;;4976876;28;20508;-71
2022/09/19 04:14:31;;;;;;;1.00;0.80;;;;;;;;;;4976261;28;20421;-71
2022/09/19 04:16:56;;;;;;;0.60;0.60;;;;;;;;;;4973045;28;20322;-71
2022/09/19 04:19:25;;;;;;;0.85;0.70;;;;;;;;;;4974959;28;20450;-70
2022/09/19 04:21:51;;;;;;;1.13;0.70;;;;;;;;;;4973330;28;20031;-69
2022/09/19 04:24:16;;;;;;;0.85;0.85;;;;;;;;;;4975226;28;20041;-69
2022/09/19 04:26:43;;;;;;;0.63;0.63;;;;;;;;;;4973513;28;20045;-70
2022/09/19 04:29:09;;;;;;;0.70;0.70;;;;;;;;;;4975019;28;20088;-69
2022/09/19 04:31:40;;;;;;;0.43;0.43;;;;;;;;;;4975416;28;20062;-67
2022/09/19 04:34:06;;;;;;;0.50;0.50;;;;;;;;;;4974116;28;20030;-67
2022/09/19 04:36:31;;;;;;;0.60;0.60;;;;;;;;;;4974222;28;20037;-67
2022/09/19 04:38:58;;;;;;;0.50;0.50;;;;;;;;;;4974036;28;20052;-66
2022/09/19 04:41:24;;;;;;;0.50;0.50;;;;;;;;;;4975389;28;20466;-66
2022/09/19 04:43:50;;;;;;;0.73;0.73;;;;;;;;;;4972681;28;20065;-66
2022/09/19 04:46:20;;;;;;;0.63;0.63;;;;;;;;;;4973523;28;20484;-66
2022/09/19 04:48:46;;;;;;;0.50;0.50;;;;;;;;;;4973225;28;20065;-66
2022/09/19 04:51:12;;;;;;;0.82;0.73;;;;;;;;;;4973114;28;20084;-66
2022/09/19 04:53:38;;;;;;;0.50;0.50;;;;;;;;;;4973569;28;20440;-69
2022/09/19 04:56:03;;;;;;;0.50;0.50;;;;;;;;;;4974621;28;20031;-69
2022/09/19 04:58:29;;;;;;;0.68;0.68;;;;;;;;;;4973331;28;20469;-67
2022/09/19 05:00:55;;;;;;;0.70;0.70;;;;;;;;;;4973169;28;20058;-68
2022/09/19 05:03:21;;;;;;;0.90;0.90;;;;;;;;;;4973556;28;20045;-69
2022/09/19 05:05:53;;;;;;;0.57;0.57;;;;;;;;;;4969842;28;20841;-66
2022/09/19 05:08:24;;;;;;;1.60;1.50;;;;;;;;;;4969831;28;20114;-60
2022/09/19 05:10:49;;;;;;;0.47;0.47;;;;;;;;;;4974355;28;20661;-59
2022/09/19 05:13:14;;;;;;;0.50;0.50;;;;;;;;;;4973581;28;20042;-61
2022/09/19 05:15:41;;;;;;;0.32;0.32;;;;;;;;;;4973492;28;20030;-61
2022/09/19 05:18:10;;;;;;;0.52;0.52;;;;;;;;;;4972812;28;20417;-62
2022/09/19 05:20:36;;;;;;;0.57;0.57;;;;;;;;;;4975074;28;20401;-61
2022/09/19 05:23:01;;;;;;;0.45;0.45;;;;;;;;;;4972307;28;20030;-61
2022/09/19 05:25:27;;;;;;;0.47;0.47;;;;;;;;;;4974075;28;20138;-60
2022/09/19 05:27:53;;;;;;;0.60;0.60;;;;;;;;;;4972987;28;20035;-60
2022/09/19 05:30:20;;;;;;;0.60;0.60;;;;;;;;;;4973738;28;20047;-61
2022/09/19 05:32:46;;;;;;;2.90;2.70;;;;;;;;;;4973768;28;20762;-60
2022/09/19 05:35:11;;;;;;;0.70;0.70;;;;;;;;;;4973081;28;20117;-61
2022/09/19 05:37:40;;;;;;;0.93;0.85;;;;;;;;;;4974225;28;20033;-60
2022/09/19 05:40:06;;;;;;;2.30;0.75;;;;;;;;;;4972954;28;20033;-60
2022/09/19 05:42:31;;;;;;;1.02;0.60;;;;;;;;;;4973746;28;20034;-61
2022/09/19 05:44:57;;;;;;;2.47;0.55;;;;;;;;;;4973431;28;20138;-61
2022/09/19 05:47:22;;;;;;;1.08;0.75;;;;;;;;;;4972160;28;20650;-61
2022/09/19 05:49:47;;;;;;;1.35;1.23;;;;;;;;;;4973279;28;20178;-61
2022/09/19 05:54:56;;;;;;;0.90;0.90;;;;;;;;;;4973673;28;20592;-60
2022/09/19 05:57:21;;;;;;;0.95;0.80;;;;;;;;;;4972294;28;20022;-61
2022/09/19 05:59:47;;;;;;;0.90;0.90;;;;;;;;;;4967840;28;20038;-61
2022/09/19 06:02:12;;;;;;;0.75;0.60;;;;;;;;;;4968943;28;20045;-62
2022/09/19 06:04:37;;;;;;;0.40;0.40;;;;;;;;;;4971504;28;20030;-60
2022/09/19 06:07:04;;;;;;;1.13;0.90;;;;;;;;;;4968463;28;20053;-61
2022/09/19 06:09:30;;;;;;;0.70;0.70;;;;;;;;;;4970296;28;20897;-61
2022/09/19 06:11:55;;;;;;;3.00;0.77;;;;;;;;;;4973104;28;20049;-62
2022/09/19 06:14:23;;;;;;;0.75;0.73;;;;;;;;;;4971886;28;20081;-61
2022/09/19 06:16:49;;;;;;;0.68;0.68;;;;;;;;;;4968762;28;20023;-60
2022/09/19 06:19:14;;;;;;;0.80;0.80;;;;;;;;;;4967997;28;20029;-61
2022/09/19 06:21:40;;;;;;;1.90;0.98;;;;;;;;;;4972575;28;20081;-61
2022/09/19 06:24:07;;;;;;;1.27;0.98;;;;;;;;;;4973376;28;20031;-61
2022/09/19 06:26:33;;;;;;;3.38;0.80;;;;;;;;;;4973152;28;20054;-61
2022/09/19 06:29:01;;;;;;;0.60;0.60;;;;;;;;;;4970115;28;20524;-61
2022/09/19 06:31:27;;;;;;;0.70;0.70;;;;;;;;;;4972243;28;20414;-61
2022/09/19 06:33:52;;;;;;;1.70;0.70;;;;;;;;;;4970720;28;20084;-62
2022/09/19 06:36:17;;;;;;;0.82;0.82;;;;;;;;;;4969301;28;20022;-61
2022/09/19 06:38:43;;;;;;;1.40;0.75;;;;;;;;;;4969668;28;20545;-65
2022/09/19 06:41:08;;;;;;;1.35;0.68;;;;;;;;;;4972428;28;20022;-61
2022/09/19 06:43:34;;;;;;;5.22;1.33;;;;;;;;;;4972516;28;20500;-59
2022/09/19 06:45:59;;;;;;;2.08;0.82;;;;;;;;;;4973336;28;20434;-62
2022/09/19 06:48:24;;;;;;;1.60;0.80;;;;;;;;;;4971385;28;20023;-61
2022/09/19 06:50:49;;;;;;;1.60;0.82;;;;;;;;;;4971781;28;20057;-61
2022/09/19 06:53:15;;;;;;;0.60;0.60;;;;;;;;;;4971909;28;20217;-61
2022/09/19 06:55:40;;;;;;;0.88;0.57;;;;;;;;;;4970224;28;20026;-60
2022/09/19 06:58:06;;;;;;;1.25;1.15;;;;;;;;;;4972585;28;20107;-65
2022/09/19 07:00:38;;;;;;;1.90;0.70;;;;;;;;;;4975922;28;20015;-60
2022/09/19 07:03:10;;;;;;;3.13;0.80;;;;;;;;;;4973766;28;20046;-60
2022/09/19 07:05:36;;;;;;;0.80;0.70;;;;;;;;;;4971260;28;20096;-61
2022/09/19 07:08:01;;;;;;;1.55;0.80;;;;;;;;;;4974202;28;20030;-60
2022/09/19 07:10:27;;;;;;;0.98;0.80;;;;;;;;;;4970219;28;20640;-60
2022/09/19 07:12:56;;;;;;;2.38;0.77;;;;;;;;;;4975955;28;20510;-60
2022/09/19 07:15:22;;;;;;;0.95;0.80;;;;;;;;;;4973582;28;20027;-59
2022/09/19 07:17:47;;;;;;;0.60;0.60;;;;;;;;;;4974019;28;20092;-60
2022/09/19 07:20:14;;;;;;;0.70;0.70;;;;;;;;;;4976060;28;20076;-60
2022/09/19 07:22:39;;;;;;;1.88;0.90;;;;;;;;;;4976034;28;20500;-60
2022/09/19 07:25:06;;;;;;;0.80;0.75;;;;;;;;;;4976207;28;20035;-60
2022/09/19 07:27:32;;;;;;;0.50;0.50;;;;;;;;;;4975584;28;20998;-61
2022/09/19 07:29:57;;;;;;;0.70;0.70;;;;;;;;;;4975108;28;20031;-60
2022/09/19 07:32:22;;;;;;;0.60;0.60;;;;;;;;;;4976535;28;20059;-60
2022/09/19 07:34:49;;;;;;;2.28;0.60;;;;;;;;;;4974954;28;20164;-60
2022/09/19 07:37:14;;;;;;;3.30;0.70;;;;;;;;;;4976723;28;20106;-60
2022/09/19 07:39:39;;;;;;;0.60;0.60;;;;;;;;;;4974344;28;20184;-59
2022/09/19 07:42:05;;;;;;;1.60;0.68;;;;;;;;;;4975739;28;20023;-60
2022/09/19 07:44:30;;;;;;;0.68;0.68;;;;;;;;;;4973357;28;20037;-61
2022/09/19 07:49:39;;;;;;;0.60;0.60;;;;;;;;;;4974272;28;20038;-61
2022/09/19 07:52:04;;;;;;;0.50;0.50;;;;;;;;;;4971248;28;20054;-61
2022/09/19 07:54:29;;;;;;;0.73;0.63;;;;;;;;;;4970896;28;20042;-60
2022/09/19 07:56:55;;;;;;;3.40;0.75;;;;;;;;;;4974673;28;20035;-61
2022/09/19 07:59:20;;;;;;;0.60;0.60;;;;;;;;;;4972827;28;20027;-61
2022/09/19 08:01:45;;;;;;;0.68;0.60;;;;;;;;;;4971194;28;20845;-61
2022/09/19 08:04:11;;;;;;;0.52;0.52;;;;;;;;;;4973975;28;20702;-61
2022/09/19 08:06:36;;;;;;;0.50;0.50;;;;;;;;;;4971026;28;20900;-61
2022/09/19 08:09:02;;;;;;;0.60;0.60;;;;;;;;;;4973239;28;20076;-61
2022/09/19 08:11:27;;;;;;;0.70;0.70;;;;;;;;;;4971423;28;20105;-58
2022/09/19 08:13:52;;;;;;;0.73;0.73;;;;;;;;;;4970634;28;20027;-63
2022/09/19 08:16:18;;;;;;;4.07;0.63;;;;;;;;;;4971723;28;20027;-63
2022/09/19 08:18:43;;;;;;;1.00;1.00;;;;;;;;;;4973238;28;20038;-62
2022/09/19 08:21:08;;;;;;;0.95;0.70;;;;;;;;;;4971035;28;20465;-62
2022/09/19 08:23:33;;;;;;;2.25;0.60;;;;;;;;;;4973708;28;20382;-63
2022/09/19 08:26:02;;;;;;;2.20;0.63;;;;;;;;;;4971333;28;20038;-62
2022/09/19 08:28:30;;;;;;;1.08;0.70;;;;;;;;;;4970885;28;20030;-64
2022/09/19 08:30:58;;;;;;;0.50;0.50;;;;;;;;;;4970979;28;20063;-63
2022/09/19 08:33:24;;;;;;;0.50;0.50;;;;;;;;;;4970675;28;20038;-63
2022/09/19 08:35:49;;;;;;;0.60;0.60;;;;;;;;;;4974564;28;20470;-63
2022/09/19 08:38:14;;;;;;;0.40;0.40;;;;;;;;;;4976459;28;20022;-64
2022/09/19 08:40:46;;;;;;;0.93;0.50;;;;;;;;;;4975721;28;20098;-63
2022/09/19 08:43:18;;;;;;;0.93;0.43;;;;;;;;;;4975496;28;20030;-60
2022/09/19 08:46:19;;;;;;;0.50;0.50;;;;;;;;;;4973890;28;20073;-61
2022/09/19 08:48:53;;;;;;;1.00;0.50;;;;;;;;;;4980980;28;20026;-63
2022/09/19 08:51:25;;;;;;;0.50;0.50;;;;;;;;;;4979266;28;20070;-63
2022/09/19 08:54:11;;;;;;;0.50;0.50;;;;;;;;;;4980175;28;20393;-63
2022/09/19 08:56:37;;;;;;;1.33;0.80;;;;;;;;;;4980426;28;20057;-63
2022/09/19 08:59:05;;;;;;;0.80;0.40;;;;;;;;;;4979779;28;20041;-65
2022/09/19 09:01:34;;;;;;;0.40;0.40;;;;;;;;;;4979567;28;20026;-63
2022/09/19 09:04:13;;;;;;;1.25;0.50;;;;;;;;;;4979443;28;20057;-64
2022/09/19 09:06:51;;;;;;;0.50;0.45;;;;;;;;;;4979242;28;20032;-64
2022/09/19 09:09:20;;;;;;;0.40;0.40;;;;;;;;;;4980013;28;20038;-64
2022/09/19 09:11:48;;;;;;;1.48;0.60;;;;;;;;;;4978377;28;20040;-65
2022/09/19 09:14:25;;;;;;;0.30;0.30;;;;;;;;;;4980374;28;20031;-64
2022/09/19 09:17:00;;;;;;;0.43;0.43;;;;;;;;;;4980571;28;20034;-64
2022/09/19 09:19:27;;;;;;;1.77;0.50;;;;;;;;;;4959765;28;20457;-65
2022/09/19 09:21:57;;;;;;;0.68;0.57;;;;;;;;;;4979679;28;20022;-65
2022/09/19 09:24:27;;;;;;;0.40;0.40;;;;;;;;;;4973282;28;20038;-66
2022/09/19 09:26:54;;;;;;;0.60;0.60;;;;;;;;;;4974179;28;20041;-65
2022/09/19 09:29:25;;;;;;;0.45;0.45;;;;;;;;;;4972092;28;20026;-64
2022/09/19 09:31:56;;;;;;;1.45;0.60;;;;;;;;;;4973687;28;20148;-64
2022/09/19 09:34:21;;;;;;;0.50;0.50;;;;;;;;;;4969449;28;20101;-64
2022/09/19 09:36:55;;;;;;;0.60;0.60;;;;;;;;;;4969956;28;20039;-64
2022/09/19 09:39:30;;;;;;;1.00;1.00;;;;;;;;;;4970686;28;20762;-64
2022/09/19 09:41:57;;;;;;;1.02;1.02;;;;;;;;;;4968995;28;20505;-64
2022/09/19 09:44:30;;;;;;;1.17;1.15;;;;;;;;;;4970265;28;20092;-64
2022/09/19 09:47:01;;;;;;;14.65;5.15;;;;;;;;;;4967811;28;20057;-65
2022/09/19 09:49:28;;;;;;;25.45;23.17;;;;;;;;;;4970412;28;20022;-64
2022/09/19 09:51:59;;;;;;;4.25;2.75;;;;;;;;;;4974018;28;20033;-65
2022/09/19 09:57:23;;;;;;;2.78;2.30;;;;;;;;;;4967127;28;20652;-64
2022/09/19 10:05:49;;;;;;;3.10;2.75;;;;;;;;;;4968243;28;20061;-64
2022/09/19 10:08:20;;;;;;;1.25;0.90;;;;;;;;;;4967767;28;20480;-64
2022/09/19 10:10:47;;;;;;;1.10;1.10;;;;;;;;;;4973455;28;20018;-60
2022/09/19 10:13:12;;;;;;;0.93;0.93;;;;;;;;;;4973732;28;20157;-64
2022/09/19 10:15:39;;;;;;;2.40;2.00;;;;;;;;;;4971986;28;20029;-65
2022/09/19 10:18:09;;;;;;;71.53;65.30;;;;;;;;;;4967652;28;20042;-65
2022/09/19 10:20:38;;;;;;;0.70;0.70;;;;;;;;;;4969716;28;20489;-66
2022/09/19 10:23:03;;;;;;;0.55;0.55;;;;;;;;;;4970472;28;20087;-65
2022/09/19 10:25:30;;;;;;;0.60;0.60;;;;;;;;;;4969859;28;20122;-64
2022/09/19 10:27:56;;;;;;;0.73;0.70;;;;;;;;;;4974932;28;20034;-63
2022/09/19 10:30:25;;;;;;;0.70;0.63;;;;;;;;;;4972658;28;20149;-63
2022/09/19 10:32:51;;;;;;;1.20;0.70;;;;;;;;;;4972689;28;20031;-63
2022/09/19 10:35:26;;;;;;;1.17;0.90;;;;;;;;;;4973288;28;20055;-64
2022/09/19 10:38:01;;;;;;;1.85;0.65;;;;;;;;;;4973648;28;20027;-65
2022/09/19 10:40:26;;;;;;;;;;;;;;;;;;4969786;28;20133;-64
2022/09/19 10:42:53;;;;;;;0.68;0.68;;;;;;;;;;4971581;28;19916;-63
2022/09/19 10:45:25;;;;;;;3.70;0.70;;;;;;;;;;4976381;28;20034;-64
2022/09/19 10:47:51;;;;;;;0.82;0.82;;;;;;;;;;4976819;28;20077;-64
2022/09/19 10:50:17;;;;;;;2.15;1.23;;;;;;;;;;4970933;28;20033;-64
2022/09/19 10:52:44;;;;;;;0.80;0.80;;;;;;;;;;4971402;28;20054;-63
2022/09/19 10:55:20;;;;;;;1.63;0.70;;;;;;;;;;4972160;28;20503;-64
2022/09/19 10:57:50;;;;;;;0.80;0.80;;;;;;;;;;4971834;28;20486;-63
2022/09/19 11:00:22;;;;;;;0.98;0.93;;;;;;;;;;4974074;28;20034;-62
2022/09/19 11:03:06;;;;;;;1.05;1.00;;;;;;;;;;4972847;28;20018;-62
2022/09/19 11:05:33;;;;;;;3.65;1.00;;;;;;;;;;4972597;28;20042;-62
2022/09/19 11:08:00;;;;;;;1.27;1.08;;;;;;;;;;4973084;28;20133;-62
2022/09/19 11:10:28;;;;;;;0.90;0.88;;;;;;;;;;4971607;28;20057;-62
2022/09/19 11:13:06;;;;;;;1.05;1.05;;;;;;;;;;4975847;28;20026;-62
2022/09/19 11:15:33;;;;;;;2.03;1.00;;;;;;;;;;4976205;28;20364;-62
2022/09/19 11:18:01;;;;;;;0.90;0.90;;;;;;;;;;4975767;28;20041;-62
2022/09/19 11:20:27;;;;;;;2.38;0.90;;;;;;;;;;4978524;28;20118;-63
2022/09/19 11:23:13;;;;;;;1.48;1.38;;;;;;;;;;4978735;28;20423;-62
2022/09/19 11:25:42;;;;;;;1.85;0.90;;;;;;;;;;4975630;28;20038;-64
2022/09/19 11:28:15;;;;;;;0.80;0.80;;;;;;;;;;4974290;28;20042;-63
2022/09/19 11:30:52;;;;;;;0.77;0.77;;;;;;;;;;4974929;28;20054;-62
2022/09/19 11:33:38;;;;;;;0.77;0.70;;;;;;;;;;4972806;28;20030;-66
2022/09/19 11:36:23;;;;;;;0.85;0.82;;;;;;;;;;4971894;28;20086;-63
2022/09/19 11:38:52;;;;;;;0.60;0.60;;;;;;;;;;4974712;28;20044;-62
2022/09/19 11:41:17;;;;;;;0.82;0.70;;;;;;;;;;4976132;28;20019;-62
2022/09/19 11:44:01;;;;;;;0.68;0.68;;;;;;;;;;4974636;28;20065;-61
2022/09/19 11:46:40;;;;;;;0.60;0.60;;;;;;;;;;4970964;28;20023;-63
2022/09/19 11:49:08;;;;;;;0.80;0.80;;;;;;;;;;4972062;28;20034;-63
2022/09/19 11:51:39;;;;;;;1.13;0.85;;;;;;;;;;4976867;28;20080;-64
2022/09/19 11:54:08;;;;;;;0.63;0.63;;;;;;;;;;4972837;28;20065;-63
2022/09/19 11:56:51;;;;;;;0.90;0.88;;;;;;;;;;4975315;28;20026;-64
2022/09/19 11:59:25;;;;;;;1.58;0.90;;;;;;;;;;4976829;28;20461;-63
2022/09/19 12:02:11;;;;;;;0.73;0.73;;;;;;;;;;4972322;28;20026;-63
2022/09/19 12:04:51;;;;;;;0.73;0.73;;;;;;;;;;4971144;28;20595;-63
2022/09/19 12:07:36;;;;;;;0.80;0.80;;;;;;;;;;4988862;28;20022;-63
2022/09/19 12:10:02;;;;;;;;;;;;;;;;;;4975374;28;20037;-65
2022/09/19 12:12:30;;;;;;;0.80;0.80;;;;;;;;;;4972090;28;20090;-63
2022/09/19 12:15:00;;;;;;;1.90;0.95;;;;;;;;;;4969893;28;20074;-63
2022/09/19 12:17:26;;;;;;;0.80;0.80;;;;;;;;;;4974335;28;20176;-63
2022/09/19 12:20:03;;;;;;;0.80;0.80;;;;;;;;;;4968433;28;20203;-63
2022/09/19 12:22:29;;;;;;;1.02;1.02;;;;;;;;;;4971303;28;20030;-63
2022/09/19 12:25:21;;;;;;;0.90;0.90;;;;;;;;;;4972157;28;20474;-62
2022/09/19 12:27:55;;;;;;;2.85;1.20;;;;;;;;;;4954372;28;20043;-62
2022/09/19 12:30:22;;;;;;;0.95;0.95;;;;;;;;;;4957685;28;20569;-64
2022/09/19 12:32:48;;;;;;;1.38;0.90;;;;;;;;;;4956999;28;20152;-62
2022/09/19 12:35:45;;;;;;;1.02;0.90;;;;;;;;;;4958172;28;20035;-61
2022/09/19 12:38:22;;;;;;;0.80;0.80;;;;;;;;;;4946553;28;20030;-63
2022/09/19 12:40:59;;;;;;;1.25;1.25;;;;;;;;;;4957083;28;20027;-63
2022/09/19 12:43:24;;;;;;;0.90;0.90;;;;;;;;;;4956925;28;20141;-63
2022/09/19 12:45:58;;;;;;;1.00;0.90;;;;;;;;;;4957119;28;20049;-63
2022/09/19 12:48:35;;;;;;;2.22;0.90;;;;;;;;;;4957615;28;20027;-63
2022/09/19 12:51:02;;;;;;;0.93;0.93;;;;;;;;;;4959553;28;20027;-65
2022/09/19 12:53:43;;;;;;;322.75;293.52;;;;;;;;;;4959610;28;20499;-65
2022/09/19 12:56:28;;;;;;;368.90;329.23;;;;;;;;;;4955938;28;20133;-64
2022/09/19 12:58:58;;;;;;;3.22;2.28;;;;;;;;;;4956269;28;20035;-64
2022/09/19 13:01:31;;;;;;;52.13;48.72;;;;;;;;;;4956624;28;20401;-64
2022/09/19 13:04:03;;;;;;;405.77;367.60;;;;;;;;;;4959818;28;20058;-64
2022/09/19 13:06:30;;;;;;;143.88;136.23;;;;;;;;;;4972995;28;20151;-64
2022/09/19 13:09:03;;;;;;;10.98;6.90;;;;;;;;;;4973074;28;20597;-64
2022/09/19 13:11:28;;;;;;;107.43;96.63;;;;;;;;;;4973815;28;20117;-64
2022/09/19 13:13:57;;;;;;;9.52;5.80;;;;;;;;;;4973730;28;20428;-65
2022/09/19 13:16:28;;;;;;;417.83;369.90;;;;;;;;;;4969025;28;20041;-66
2022/09/19 13:24:58;;;;;;;2.35;1.67;;;;;;;;;;4971136;28;20089;-65
2022/09/19 13:27:25;;;;;;;3.40;2.80;;;;;;;;;;4978144;28;20039;-63
2022/09/19 13:29:53;;;;;;;1.67;1.40;;;;;;;;;;4973401;28;20029;-64
2022/09/19 13:32:27;;;;;;;1.23;0.80;;;;;;;;;;4973470;28;20207;-64
2022/09/19 13:35:20;;;;;;;324.40;260.20;;;;;;;;;;4973378;28;20935;-64
2022/09/19 13:37:46;;;;;;;469.17;337.40;;;;;;;;;;4973297;28;20058;-64
2022/09/19 13:40:21;;;;;;;344.85;317.45;;;;;;;;;;4971559;28;20528;-65
2022/09/19 13:42:46;;;;;;;3.72;1.45;;;;;;;;;;4973156;28;20084;-66
2022/09/19 13:45:27;;;;;;;1.63;0.80;;;;;;;;;;4968860;28;20038;-64
2022/09/19 13:47:55;;;;;;;1.35;0.80;;;;;;;;;;4968842;28;20328;-66
2022/09/19 13:50:23;;;;;;;1.98;0.73;;;;;;;;;;4971155;28;20115;-64
2022/09/19 13:53:01;;;;;;;0.70;0.70;;;;;;;;;;4973707;28;20085;-66
2022/09/19 13:55:30;;;;;;;1.83;1.00;;;;;;;;;;4972655;28;20041;-65
2022/09/19 13:58:28;;;;;;;0.82;0.80;;;;;;;;;;4973498;28;20054;-65
2022/09/19 14:01:13;;;;;;;1.58;1.38;;;;;;;;;;4972168;28;20369;-62
2022/09/19 14:03:43;;;;;;;1.00;0.82;;;;;;;;;;4972959;28;20045;-60
2022/09/19 14:06:30;;;;;;;1.05;1.05;;;;;;;;;;4971901;28;20585;-63
2022/09/19 14:09:19;;;;;;;2.00;1.10;;;;;;;;;;4973809;28;20031;-63
2022/09/19 14:11:44;;;;;;;1.13;1.00;;;;;;;;;;4974550;28;20023;-63
2022/09/19 14:14:29;;;;;;;2.63;0.90;;;;;;;;;;4973148;28;20389;-63
2022/09/19 14:17:17;;;;;;;1.10;1.00;;;;;;;;;;4969725;28;20121;-64
2022/09/19 14:19:43;;;;;;;1.30;1.20;;;;;;;;;;4973595;28;20037;-63
2022/09/19 14:22:28;;;;;;;2.15;1.10;;;;;;;;;;4972581;28;20031;-63
2022/09/19 14:25:02;;;;;;;3.45;1.35;;;;;;;;;;4973303;28;20505;-61
2022/09/19 14:27:41;;;;;;;0.93;0.80;;;;;;;;;;4972514;28;20452;-63
2022/09/19 14:30:27;;;;;;;1.85;1.15;;;;;;;;;;4973517;28;20290;-61
2022/09/19 14:32:52;;;;;;;;;;;;;;;;;;4957197;28;20098;-68
2022/09/19 14:35:29;;;;;;;1.20;1.20;;;;;;;;;;4952649;28;20057;-68
2022/09/19 14:38:14;;;;;;;0.80;0.80;;;;;;;;;;4953208;28;20206;-68
2022/09/19 14:40:58;;;;;;;1.40;0.95;;;;;;;;;;4952685;28;20020;-68
2022/09/19 14:43:23;;;;;;;1.60;1.50;;;;;;;;;;4953083;28;20034;-68
2022/09/19 14:45:58;;;;;;;2.08;1.10;;;;;;;;;;4954540;28;20031;-68
2022/09/19 14:48:33;;;;;;;;;;;;;;;;;;4953872;28;20109;-68
2022/09/19 14:51:10;;;;;;;0.60;0.60;;;;;;;;;;4952393;28;20212;-68
2022/09/19 14:53:37;;;;;;;3.58;2.22;;;;;;;;;;4952439;28;20033;-68
2022/09/19 14:56:07;;;;;;;2.47;0.90;;;;;;;;;;4953133;28;20031;-68
2022/09/19 14:58:33;;;;;;;1.15;1.05;;;;;;;;;;4952790;28;20058;-68
2022/09/19 15:01:14;;;;;;;2.75;1.73;;;;;;;;;;4952119;28;20023;-68
2022/09/19 15:03:46;;;;;;;0.93;0.93;;;;;;;;;;4952357;28;20050;-68
2022/09/19 15:06:35;;;;;;;2.13;1.10;;;;;;;;;;4952959;28;20038;-68
2022/09/19 15:09:02;;;;;;;1.35;1.25;;;;;;;;;;4956805;28;20117;-67
2022/09/19 15:11:29;;;;;;;0.90;0.88;;;;;;;;;;4954480;28;20525;-68
2022/09/19 15:13:55;;;;;;;1.40;1.00;;;;;;;;;;4951739;28;20171;-68
2022/09/19 15:16:20;;;;;;;0.90;0.90;;;;;;;;;;4952524;28;20063;-66
2022/09/19 15:18:47;;;;;;;1.25;1.10;;;;;;;;;;4952603;28;20161;-67
2022/09/19 15:21:14;;;;;;;2.17;1.05;;;;;;;;;;4951812;28;20549;-68
2022/09/19 15:23:41;;;;;;;1.05;1.00;;;;;;;;;;4948799;28;20065;-68